Time;durP1;ratioP1;P1;durP2;ratioP2;P2;SDS_P1;SDS_P2;PMS_P1;PMS_P2;Temp;Humidity;BMP_temperature;BMP_pressure;BME280_temperature;BME280_humidity;BME280_pressure;Samples;Min_cycle;Max_cycle;Signal;HPM_P1;HPM_P2
2021/01/13 00:02:09;;;;;;;21.13;12.93;;;9.20;99.90;;;;;;5048180;28;20368;-81
2021/01/13 00:04:35;;;;;;;21.65;13.75;;;9.20;99.90;;;;;;5013730;28;20029;-79
2021/01/13 00:07:01;;;;;;;20.77;13.13;;;9.20;99.90;;;;;;5046526;28;20589;-81
2021/01/13 00:09:27;;;;;;;23.10;13.98;;;9.20;99.90;;;;;;5046597;28;20274;-82
2021/01/13 00:11:57;;;;;;;21.30;14.13;;;9.30;99.90;;;;;;5046516;28;20049;-81
2021/01/13 00:14:26;;;;;;;21.33;13.35;;;9.30;99.90;;;;;;5030052;28;20071;-79
2021/01/13 00:16:53;;;;;;;20.63;13.40;;;9.30;99.90;;;;;;5046568;28;20071;-81
2021/01/13 00:19:19;;;;;;;25.05;14.05;;;9.30;99.90;;;;;;5047871;28;20479;-81
2021/01/13 00:21:53;;;;;;;19.40;12.88;;;9.30;99.90;;;;;;5013667;28;20472;-81
2021/01/13 00:24:20;;;;;;;27.23;15.48;;;9.30;99.90;;;;;;5046610;28;20380;-80
2021/01/13 00:26:46;;;;;;;24.58;14.05;;;9.40;99.90;;;;;;5047726;28;20036;-83
2021/01/13 00:29:16;;;;;;;25.00;12.98;;;9.40;99.90;;;;;;5047553;28;20036;-78
2021/01/13 00:31:42;;;;;;;23.35;13.13;;;9.40;99.90;;;;;;5030400;28;20040;-81
2021/01/13 00:34:09;;;;;;;27.63;13.32;;;9.40;99.90;;;;;;5047666;28;20025;-79
2021/01/13 00:36:34;;;;;;;26.67;13.23;;;9.40;99.90;;;;;;5046495;28;20036;-79
2021/01/13 00:39:01;;;;;;;23.25;12.75;;;9.40;99.90;;;;;;5030017;28;20025;-81
2021/01/13 00:41:26;;;;;;;24.17;12.77;;;9.40;99.90;;;;;;5047495;28;20070;-82
2021/01/13 00:43:53;;;;;;;22.45;12.32;;;9.40;99.90;;;;;;5046325;28;20110;-80
2021/01/13 00:46:20;;;;;;;21.40;12.18;;;9.40;99.90;;;;;;5029901;28;20029;-79
2021/01/13 00:48:46;;;;;;;26.00;12.88;;;9.50;99.90;;;;;;5046347;28;20171;-79
2021/01/13 00:51:12;;;;;;;24.77;12.57;;;9.50;99.90;;;;;;5047463;28;20251;-83
2021/01/13 00:53:39;;;;;;;21.95;12.30;;;9.50;99.90;;;;;;5047530;28;20083;-81
2021/01/13 00:56:05;;;;;;;19.70;11.90;;;9.50;99.90;;;;;;5049835;28;20029;-79
2021/01/13 00:58:31;;;;;;;25.17;13.00;;;9.50;99.90;;;;;;5050358;28;20518;-82
2021/01/13 01:00:57;;;;;;;25.38;12.48;;;9.50;99.90;;;;;;5051382;28;20048;-81
2021/01/13 01:03:23;;;;;;;24.92;12.43;;;9.50;99.90;;;;;;5033655;28;20025;-81
2021/01/13 01:05:49;;;;;;;25.05;13.23;;;9.50;99.90;;;;;;5050331;28;20033;-79
2021/01/13 01:08:16;;;;;;;19.70;11.10;;;9.50;99.90;;;;;;5033884;28;20419;-80
2021/01/13 01:10:43;;;;;;;27.92;13.43;;;9.60;99.90;;;;;;5049773;28;20511;-81
2021/01/13 01:13:08;;;;;;;29.42;12.95;;;9.60;99.90;;;;;;5049751;28;20130;-80
2021/01/13 01:15:35;;;;;;;25.80;12.82;;;9.60;99.90;;;;;;5016782;28;20127;-81
2021/01/13 01:18:01;;;;;;;21.30;11.20;;;9.60;99.90;;;;;;5049902;28;20059;-79
2021/01/13 01:20:27;;;;;;;22.10;11.80;;;9.60;99.90;;;;;;5049968;28;20025;-80
2021/01/13 01:22:54;;;;;;;26.42;12.45;;;9.60;99.90;;;;;;5016836;28;20082;-81
2021/01/13 01:25:21;;;;;;;30.15;13.15;;;9.60;99.90;;;;;;5049587;28;20558;-80
2021/01/13 01:27:56;;;;;;;20.80;10.20;;;9.60;99.90;;;;;;5049775;28;20037;-82
2021/01/13 01:30:23;;;;;;;20.75;10.68;;;9.60;99.90;;;;;;5049566;28;20463;-81
2021/01/13 01:32:50;;;;;;;31.98;12.40;;;9.70;99.90;;;;;;5033030;28;20025;-80
2021/01/13 01:35:16;;;;;;;20.92;9.68;;;9.70;99.90;;;;;;5049579;28;20059;-79
2021/01/13 01:37:43;;;;;;;21.80;10.23;;;9.70;99.90;;;;;;5049324;28;20060;-82
2021/01/13 01:40:13;;;;;;;22.02;10.05;;;9.70;99.90;;;;;;5049868;28;20037;-84
2021/01/13 01:42:49;;;;;;;20.02;9.23;;;9.70;99.90;;;;;;5049345;28;20438;-79
2021/01/13 01:45:17;;;;;;;22.45;9.60;;;9.70;99.90;;;;;;5049346;28;20025;-81
2021/01/13 01:47:58;;;;;;;20.27;9.98;;;9.80;99.90;;;;;;5049381;28;20109;-80
2021/01/13 01:50:27;;;;;;;16.98;7.95;;;9.70;99.90;;;;;;5049159;28;20043;-81
2021/01/13 01:53:03;;;;;;;16.05;8.23;;;9.70;99.90;;;;;;5050747;28;20042;-80
2021/01/13 01:55:36;;;;;;;19.20;8.77;;;9.80;99.90;;;;;;5050716;28;20515;-81
2021/01/13 01:58:07;;;;;;;16.13;8.20;;;9.80;99.90;;;;;;5049108;28;20033;-80
2021/01/13 02:00:34;;;;;;;19.30;8.57;;;9.80;99.90;;;;;;5049029;28;20028;-81
2021/01/13 02:03:16;;;;;;;18.63;9.00;;;9.80;99.90;;;;;;5032462;28;20078;-78
2021/01/13 02:05:42;;;;;;;16.52;7.95;;;9.80;99.90;;;;;;5049025;28;20029;-80
2021/01/13 02:08:20;;;;;;;17.50;7.63;;;9.80;99.90;;;;;;5050411;28;20033;-79
2021/01/13 02:10:50;;;;;;;15.98;7.40;;;9.80;99.90;;;;;;5048612;28;20520;-79
2021/01/13 02:13:19;;;;;;;14.88;7.30;;;9.80;99.90;;;;;;5049070;28;20021;-82
2021/01/13 02:15:46;;;;;;;13.00;6.33;;;9.90;99.90;;;;;;5032598;28;20029;-81
2021/01/13 02:18:21;;;;;;;13.98;6.68;;;9.80;99.90;;;;;;5032420;28;20124;-81
2021/01/13 02:20:53;;;;;;;12.98;6.25;;;9.90;99.90;;;;;;5050013;28;20028;-80
2021/01/13 02:23:45;;;;;;;12.25;6.60;;;9.80;99.90;;;;;;5032302;28;20483;-80
2021/01/13 02:26:41;;;;;;;11.07;5.32;;;9.80;99.90;;;;;;5050006;28;20032;-81
2021/01/13 02:29:09;;;;;;;13.30;6.03;;;9.90;99.90;;;;;;5049790;28;20067;-82
2021/01/13 02:31:44;;;;;;;10.80;5.13;;;9.90;99.90;;;;;;5049959;28;20079;-81
2021/01/13 02:34:19;;;;;;;11.70;5.95;;;9.90;99.90;;;;;;5048483;28;20021;-80
2021/01/13 02:37:18;;;;;;;8.98;4.90;;;9.90;99.90;;;;;;5049609;28;20021;-82
2021/01/13 02:39:46;;;;;;;9.32;4.43;;;9.90;99.90;;;;;;5048453;28;20048;-78
2021/01/13 02:42:21;;;;;;;8.52;5.03;;;10.00;99.90;;;;;;5049747;28;20025;-80
2021/01/13 02:45:03;;;;;;;8.60;4.47;;;10.00;99.90;;;;;;5049615;28;20028;-81
2021/01/13 02:47:57;;;;;;;9.60;4.75;;;10.00;99.90;;;;;;5048472;28;20393;-79
2021/01/13 02:50:24;;;;;;;9.25;4.65;;;10.00;99.90;;;;;;5049356;28;20104;-80
2021/01/13 02:53:06;;;;;;;7.95;4.25;;;10.00;99.90;;;;;;5048095;28;20021;-81
2021/01/13 02:55:36;;;;;;;7.35;3.80;;;10.00;99.90;;;;;;5048222;28;20479;-78
2021/01/13 02:58:06;;;;;;;7.70;4.10;;;10.00;99.90;;;;;;5048250;28;20102;-79
2021/01/13 03:00:31;;;;;;;;;;;10.10;99.90;;;;;;5049821;28;20025;-78
2021/01/13 03:03:01;;;;;;;8.07;3.15;;;10.10;99.90;;;;;;5049463;28;19935;-81
2021/01/13 03:05:28;;;;;;;8.70;3.45;;;10.10;99.90;;;;;;5048145;28;20116;-81
2021/01/13 03:07:58;;;;;;;6.40;2.72;;;10.10;99.90;;;;;;5049213;28;20416;-80
2021/01/13 03:10:26;;;;;;;5.65;2.80;;;10.10;99.90;;;;;;5030923;28;20427;-81
2021/01/13 03:12:59;;;;;;;9.15;3.20;;;10.10;99.90;;;;;;5047893;28;20029;-79
2021/01/13 03:15:30;;;;;;;5.10;3.17;;;10.10;99.90;;;;;;5049024;28;20048;-81
2021/01/13 03:18:14;;;;;;;3.92;2.47;;;10.10;99.90;;;;;;5047597;28;20126;-81
2021/01/13 03:21:04;;;;;;;4.00;2.45;;;10.10;99.90;;;;;;5048906;28;20662;-81
2021/01/13 03:24:04;;;;;;;6.18;2.42;;;10.20;99.90;;;;;;5049090;28;20040;-80
2021/01/13 03:26:39;;;;;;;4.82;2.35;;;10.10;99.90;;;;;;5047641;28;20029;-81
2021/01/13 03:29:06;;;;;;;4.00;2.17;;;10.20;99.90;;;;;;5048560;28;20030;-81
2021/01/13 03:31:58;;;;;;;3.97;2.50;;;10.20;99.90;;;;;;5048777;28;20024;-79
2021/01/13 03:34:31;;;;;;;4.95;2.28;;;10.20;99.90;;;;;;5048654;28;20048;-81
2021/01/13 03:37:21;;;;;;;5.88;2.60;;;10.20;99.90;;;;;;5031186;28;20094;-81
2021/01/13 03:39:49;;;;;;;4.68;2.40;;;10.20;99.90;;;;;;5048748;28;20067;-81
2021/01/13 03:42:19;;;;;;;3.83;2.38;;;10.20;99.90;;;;;;5048528;28;20026;-80
2021/01/13 03:44:46;;;;;;;4.35;2.40;;;10.30;99.90;;;;;;5048540;28;20032;-82
2021/01/13 03:47:29;;;;;;;3.50;2.25;;;10.30;99.90;;;;;;5030504;28;20424;-81
2021/01/13 03:50:11;;;;;;;3.08;2.10;;;10.30;99.90;;;;;;5048321;28;20025;-81
2021/01/13 03:52:52;;;;;;;3.70;2.35;;;10.30;99.90;;;;;;5047163;28;20046;-82
2021/01/13 03:55:18;;;;;;;3.08;2.00;;;10.30;99.90;;;;;;5048430;28;20517;-78
2021/01/13 03:57:47;;;;;;;3.58;2.10;;;10.30;99.90;;;;;;5030690;28;20029;-81
2021/01/13 04:00:14;;;;;;;4.40;2.20;;;10.30;99.90;;;;;;5046987;28;20017;-79
2021/01/13 04:03:03;;;;;;;4.00;2.47;;;10.40;99.90;;;;;;5046736;28;20040;-81
2021/01/13 04:05:35;;;;;;;2.83;1.92;;;10.30;99.90;;;;;;5047005;28;20029;-79
2021/01/13 04:08:03;;;;;;;4.20;2.55;;;10.40;99.90;;;;;;5030680;28;20136;-78
2021/01/13 04:10:29;;;;;;;3.40;2.20;;;10.40;99.90;;;;;;5047787;28;20029;-81
2021/01/13 04:13:07;;;;;;;4.07;2.38;;;10.40;99.90;;;;;;5048142;28;20037;-81
2021/01/13 04:15:38;;;;;;;3.67;2.50;;;10.40;99.90;;;;;;5046991;28;20021;-80
2021/01/13 04:18:06;;;;;;;5.20;2.45;;;10.40;99.90;;;;;;5046934;28;20028;-79
2021/01/13 04:20:33;;;;;;;4.43;2.80;;;10.40;99.90;;;;;;5046579;28;20040;-79
2021/01/13 04:22:59;;;;;;;3.35;2.10;;;10.40;99.90;;;;;;5030189;28;20555;-80
2021/01/13 04:25:25;;;;;;;3.42;2.33;;;10.40;99.90;;;;;;5048311;28;20029;-80
2021/01/13 04:27:51;;;;;;;2.83;1.90;;;10.40;99.90;;;;;;5047132;28;20306;-81
2021/01/13 04:30:17;;;;;;;4.47;2.53;;;10.50;99.90;;;;;;5045793;28;20064;-80
2021/01/13 04:32:43;;;;;;;3.88;2.45;;;10.50;99.90;;;;;;5046964;28;20032;-83
2021/01/13 04:35:10;;;;;;;3.53;2.50;;;10.50;99.90;;;;;;5047031;28;20086;-81
2021/01/13 04:37:36;;;;;;;3.80;2.08;;;10.50;99.90;;;;;;5047886;28;20017;-78
2021/01/13 04:40:31;;;;;;;4.07;2.38;;;10.50;99.90;;;;;;5047842;28;20030;-80
2021/01/13 04:43:00;;;;;;;5.50;2.10;;;10.50;99.90;;;;;;5046488;28;20032;-81
2021/01/13 04:45:35;;;;;;;;;;;10.50;99.90;;;;;;5046986;28;20569;-80
2021/01/13 04:48:05;;;;;;;6.43;2.30;;;10.60;99.90;;;;;;5046411;28;19997;-81
2021/01/13 04:50:34;;;;;;;3.63;2.45;;;10.60;99.90;;;;;;5029924;28;20056;-79
2021/01/13 04:53:06;;;;;;;3.28;2.13;;;10.60;99.90;;;;;;5047649;28;20074;-82
2021/01/13 04:55:44;;;;;;;3.33;2.35;;;10.60;99.90;;;;;;5046203;28;20021;-80
2021/01/13 04:58:47;;;;;;;4.68;2.35;;;10.60;99.90;;;;;;5046473;28;20091;-82
2021/01/13 05:01:31;;;;;;;3.30;2.35;;;10.60;99.90;;;;;;5047482;28;20490;-81
2021/01/13 05:04:00;;;;;;;3.00;2.05;;;10.60;99.90;;;;;;5046103;28;20032;-82
2021/01/13 05:06:41;;;;;;;3.90;2.50;;;10.60;99.90;;;;;;5047803;28;20476;-81
2021/01/13 05:09:09;;;;;;;3.35;1.92;;;10.60;99.90;;;;;;5046259;28;20033;-81
2021/01/13 05:11:39;;;;;;;3.60;2.42;;;10.60;99.90;;;;;;5047439;28;20047;-82
2021/01/13 05:14:05;;;;;;;3.75;2.40;;;10.60;99.90;;;;;;5046185;28;20472;-81
2021/01/13 05:16:48;;;;;;;2.97;1.90;;;10.60;99.90;;;;;;5047447;28;20450;-82
2021/01/13 05:19:52;;;;;;;3.22;2.20;;;10.60;99.90;;;;;;5046337;28;20017;-82
2021/01/13 05:22:18;;;;;;;4.32;2.13;;;10.60;99.90;;;;;;5044704;28;20417;-80
2021/01/13 05:24:50;;;;;;;3.60;2.38;;;10.60;99.90;;;;;;5046161;28;20124;-81
2021/01/13 05:27:27;;;;;;;3.35;2.40;;;10.60;99.90;;;;;;5047513;28;20039;-83
2021/01/13 05:30:00;;;;;;;3.00;2.20;;;10.60;99.90;;;;;;5045925;28;20057;-81
2021/01/13 05:32:27;;;;;;;3.00;2.10;;;10.60;99.90;;;;;;5047143;28;20488;-79
2021/01/13 05:34:56;;;;;;;3.53;2.08;;;10.70;99.90;;;;;;5047604;28;20021;-79
2021/01/13 05:37:46;;;;;;;3.65;2.30;;;10.70;99.90;;;;;;5047458;28;20029;-81
2021/01/13 05:40:14;;;;;;;4.07;2.28;;;10.70;99.90;;;;;;5047681;28;20108;-79
2021/01/13 05:42:40;;;;;;;3.60;2.40;;;10.70;99.90;;;;;;5048714;28;20063;-81
2021/01/13 05:45:06;;;;;;;3.33;2.13;;;10.70;99.90;;;;;;5049697;28;20084;-80
2021/01/13 05:47:53;;;;;;;2.67;1.88;;;10.70;99.90;;;;;;5033086;28;20086;-77
2021/01/13 05:50:21;;;;;;;5.20;2.22;;;10.70;99.90;;;;;;5050608;28;20029;-81
2021/01/13 05:52:55;;;;;;;3.47;1.98;;;10.70;99.90;;;;;;5049102;28;20025;-78
2021/01/13 05:55:22;;;;;;;3.28;2.20;;;10.70;99.90;;;;;;5050828;28;20471;-78
2021/01/13 05:58:06;;;;;;;3.63;2.30;;;10.80;99.90;;;;;;5050649;28;20048;-79
2021/01/13 06:00:33;;;;;;;4.20;2.50;;;10.70;99.90;;;;;;5032861;28;20084;-80
2021/01/13 06:03:04;;;;;;;2.88;1.80;;;10.80;99.90;;;;;;5032551;28;20511;-79
2021/01/13 06:05:31;;;;;;;3.92;2.15;;;10.80;99.90;;;;;;5032329;28;20036;-80
2021/01/13 06:08:02;;;;;;;4.05;2.08;;;10.80;99.90;;;;;;5049162;28;20037;-80
2021/01/13 06:10:36;;;;;;;3.42;2.20;;;10.80;99.90;;;;;;5032687;28;20369;-80
2021/01/13 06:13:05;;;;;;;4.18;1.95;;;10.80;99.90;;;;;;5049170;28;20024;-81
2021/01/13 06:15:33;;;;;;;4.20;1.90;;;10.80;99.90;;;;;;5049174;28;20032;-79
2021/01/13 06:17:59;;;;;;;4.20;1.98;;;10.80;99.90;;;;;;5048787;28;20042;-79
2021/01/13 06:20:28;;;;;;;4.88;1.80;;;10.80;99.90;;;;;;5032236;28;20033;-82
2021/01/13 06:22:56;;;;;;;2.90;1.80;;;10.80;99.90;;;;;;5048720;28;20483;-79
2021/01/13 06:25:31;;;;;;;3.80;1.90;;;10.80;99.90;;;;;;5048781;28;20044;-80
2021/01/13 06:28:23;;;;;;;2.92;1.60;;;10.80;99.90;;;;;;5050085;28;20033;-82
2021/01/13 06:31:04;;;;;;;2.97;1.80;;;10.80;99.90;;;;;;5048822;28;20377;-80
2021/01/13 06:33:52;;;;;;;2.80;1.60;;;10.80;99.90;;;;;;5050046;28;20036;-81
2021/01/13 06:36:42;;;;;;;3.75;1.15;;;10.80;99.90;;;;;;5049502;28;20033;-81
2021/01/13 06:39:09;;;;;;;2.78;1.00;;;10.80;99.90;;;;;;5048225;28;20037;-81
2021/01/13 06:41:48;;;;;;;2.10;1.10;;;10.90;99.90;;;;;;5048212;28;20029;-73
2021/01/13 06:44:16;;;;;;;2.55;1.38;;;10.90;99.90;;;;;;5031764;28;20514;-82
2021/01/13 06:46:42;;;;;;;2.00;1.20;;;10.90;99.90;;;;;;5031799;28;20040;-82
2021/01/13 06:49:16;;;;;;;4.43;1.23;;;10.90;99.90;;;;;;5049523;28;20139;-82
2021/01/13 06:51:43;;;;;;;2.10;1.20;;;10.90;99.90;;;;;;5032195;28;20029;-79
2021/01/13 06:54:12;;;;;;;3.45;1.55;;;10.90;99.90;;;;;;5048334;28;20418;-80
2021/01/13 06:56:47;;;;;;;3.13;1.70;;;10.90;99.90;;;;;;5047922;28;20036;-81
2021/01/13 06:59:14;;;;;;;3.03;1.40;;;10.90;99.90;;;;;;5049507;28;20029;-82
2021/01/13 07:01:54;;;;;;;3.53;1.63;;;11.00;99.90;;;;;;5047924;28;20048;-79
2021/01/13 07:04:26;;;;;;;3.45;1.52;;;10.90;99.90;;;;;;5031638;28;20033;-81
2021/01/13 07:07:07;;;;;;;3.05;1.80;;;10.90;99.90;;;;;;5047968;28;20036;-79
2021/01/13 07:09:37;;;;;;;4.15;2.15;;;10.90;99.90;;;;;;5031511;28;20025;-80
2021/01/13 07:12:07;;;;;;;;;;;11.00;99.90;;;;;;5049316;28;20128;-81
2021/01/13 07:14:37;;;;;;;2.42;1.48;;;11.00;99.90;;;;;;5048031;28;19927;-81
2021/01/13 07:17:06;;;;;;;4.57;1.70;;;11.00;99.90;;;;;;5047949;28;20029;-80
2021/01/13 07:19:34;;;;;;;2.85;1.52;;;11.00;99.90;;;;;;5047743;28;20059;-80
2021/01/13 07:22:00;;;;;;;3.78;1.77;;;11.00;99.90;;;;;;5048893;28;20031;-79
2021/01/13 07:24:27;;;;;;;2.63;1.30;;;11.00;99.90;;;;;;5048952;28;20029;-82
2021/01/13 07:26:57;;;;;;;5.60;1.30;;;11.00;99.90;;;;;;5048887;28;20483;-82
2021/01/13 07:29:26;;;;;;;;;;;11.00;99.90;;;;;;5049289;28;20046;-82
2021/01/13 07:31:55;;;;;;;2.30;1.30;;;11.00;99.90;;;;;;5047472;28;19905;-79
2021/01/13 07:34:35;;;;;;;2.75;1.52;;;11.00;99.90;;;;;;5048761;28;20025;-81
2021/01/13 07:37:13;;;;;;;2.92;1.50;;;11.00;99.90;;;;;;5047343;28;20572;-81
2021/01/13 07:40:09;;;;;;;5.18;2.20;;;11.00;99.90;;;;;;5048939;28;20052;-81
2021/01/13 07:42:43;;;;;;;2.20;1.30;;;11.00;99.90;;;;;;5048672;28;20025;-79
2021/01/13 07:45:20;;;;;;;2.75;1.60;;;11.00;99.90;;;;;;5048770;28;20025;-80
2021/01/13 07:48:14;;;;;;;4.13;1.60;;;11.00;99.90;;;;;;5046978;28;20025;-82
2021/01/13 07:50:46;;;;;;;3.00;1.88;;;11.00;99.90;;;;;;5048483;28;20127;-81
2021/01/13 07:53:29;;;;;;;5.22;1.40;;;11.00;99.90;;;;;;5047149;28;20021;-79
2021/01/13 07:55:57;;;;;;;2.97;1.30;;;11.00;99.90;;;;;;5047008;28;20025;-80
2021/01/13 07:58:27;;;;;;;2.22;1.48;;;11.00;99.90;;;;;;5048514;28;20380;-79
2021/01/13 08:01:18;;;;;;;2.03;1.23;;;11.00;99.90;;;;;;5046533;28;20029;-79
2021/01/13 08:04:22;;;;;;;3.05;1.40;;;11.00;99.90;;;;;;5047028;28;20143;-79
2021/01/13 08:06:48;;;;;;;2.97;1.10;;;11.10;99.90;;;;;;5047719;28;20056;-80
2021/01/13 08:09:17;;;;;;;2.22;1.00;;;11.10;99.90;;;;;;5047671;28;20040;-81
2021/01/13 08:11:58;;;;;;;2.33;1.20;;;11.10;99.90;;;;;;5047514;28;20047;-82
2021/01/13 08:15:01;;;;;;;2.20;0.90;;;11.10;99.90;;;;;;5046982;28;20056;-80
2021/01/13 08:17:54;;;;;;;3.22;1.00;;;11.10;99.90;;;;;;5047265;28;20430;-81
2021/01/13 08:20:30;;;;;;;3.67;1.10;;;11.10;99.90;;;;;;5047022;28;20498;-81
2021/01/13 08:23:10;;;;;;;3.30;1.50;;;11.10;99.90;;;;;;5046878;28;20567;-81
2021/01/13 08:25:37;;;;;;;4.85;1.70;;;11.10;99.90;;;;;;5048111;28;20048;-81
2021/01/13 08:28:07;;;;;;;5.55;2.53;;;11.10;99.90;;;;;;5048247;28;20565;-80
2021/01/13 08:30:33;;;;;;;4.72;1.70;;;11.10;99.90;;;;;;5030526;28;20037;-80
2021/01/13 08:33:00;;;;;;;3.85;1.42;;;11.10;99.90;;;;;;5046930;28;20112;-81
2021/01/13 08:35:36;;;;;;;3.58;1.60;;;11.10;99.90;;;;;;5014471;28;20124;-80
2021/01/13 08:38:10;;;;;;;2.67;1.00;;;11.10;99.90;;;;;;5046798;28;20044;-80
2021/01/13 08:40:40;;;;;;;3.60;1.40;;;11.10;99.90;;;;;;5046687;28;20035;-80
2021/01/13 08:43:13;;;;;;;;;;;11.10;99.90;;;;;;5047228;28;20055;-82
2021/01/13 08:45:43;;;;;;;1.73;0.70;;;11.10;99.90;;;;;;5047779;28;20354;-80
2021/01/13 08:48:11;;;;;;;2.10;1.00;;;11.10;99.90;;;;;;5047211;28;20111;-79
2021/01/13 08:50:38;;;;;;;3.28;1.45;;;11.10;99.90;;;;;;5029577;28;20025;-81
2021/01/13 08:53:04;;;;;;;3.78;1.40;;;11.10;99.90;;;;;;5029906;28;20107;-80
2021/01/13 08:55:31;;;;;;;3.22;1.80;;;11.00;99.90;;;;;;5046558;28;20422;-80
2021/01/13 08:58:08;;;;;;;3.63;2.28;;;11.00;99.90;;;;;;5046980;28;20112;-82
2021/01/13 09:00:37;;;;;;;7.88;3.42;;;11.00;99.90;;;;;;5030515;28;20127;-81
2021/01/13 09:03:11;;;;;;;8.82;4.85;;;11.00;99.90;;;;;;5046536;28;20052;-80
2021/01/13 09:05:39;;;;;;;6.25;4.05;;;11.00;99.90;;;;;;5048256;28;20039;-79
2021/01/13 09:08:07;;;;;;;4.75;2.88;;;11.00;99.90;;;;;;5047660;28;20029;-79
2021/01/13 09:10:46;;;;;;;3.30;1.95;;;11.00;99.90;;;;;;5045751;28;20502;-81
2021/01/13 09:13:31;;;;;;;4.75;1.17;;;11.00;99.90;;;;;;5046679;28;20104;-82
2021/01/13 09:15:57;;;;;;;7.10;1.77;;;11.00;99.90;;;;;;5046395;28;20029;-81
2021/01/13 09:18:24;;;;;;;3.20;0.85;;;11.00;99.90;;;;;;5051611;28;20024;-83
2021/01/13 09:20:50;;;;;;;3.83;1.13;;;11.00;99.90;;;;;;5050883;28;20434;-82
2021/01/13 09:23:23;;;;;;;2.47;1.00;;;11.00;99.90;;;;;;5017166;28;20501;-81
2021/01/13 09:25:56;;;;;;;2.42;1.23;;;11.10;99.90;;;;;;5049684;28;20067;-80
2021/01/13 09:28:22;;;;;;;3.53;1.23;;;11.10;99.90;;;;;;5051089;28;20474;-80
2021/01/13 09:30:48;;;;;;;3.60;1.25;;;11.10;99.90;;;;;;5032395;28;20047;-80
2021/01/13 09:33:16;;;;;;;5.65;1.20;;;11.10;99.90;;;;;;5049609;28;20046;-80
2021/01/13 09:35:47;;;;;;;3.28;1.20;;;11.10;99.90;;;;;;5033091;28;20032;-80
2021/01/13 09:38:15;;;;;;;6.40;2.38;;;11.10;99.90;;;;;;5051496;28;20052;-80
2021/01/13 09:41:01;;;;;;;5.03;1.40;;;11.10;99.90;;;;;;5049742;28;20040;-80
2021/01/13 09:43:40;;;;;;;2.55;1.35;;;11.10;99.90;;;;;;5049473;28;20031;-79
2021/01/13 09:46:26;;;;;;;6.07;1.52;;;11.20;99.90;;;;;;5049785;28;20033;-79
2021/01/13 09:49:06;;;;;;;4.93;1.50;;;11.20;99.90;;;;;;5049194;28;20033;-79
2021/01/13 09:51:33;;;;;;;3.83;1.60;;;11.20;99.90;;;;;;5049393;28;20079;-80
2021/01/13 09:54:02;;;;;;;4.18;1.27;;;11.20;99.90;;;;;;5032837;28;20041;-80
2021/01/13 09:56:33;;;;;;;3.30;1.73;;;11.30;99.90;;;;;;5049597;28;20025;-81
2021/01/13 09:59:04;;;;;;;5.60;1.88;;;11.30;99.90;;;;;;5049331;28;20267;-80
2021/01/13 10:01:32;;;;;;;4.30;1.40;;;11.30;99.90;;;;;;5049037;28;20029;-80
2021/01/13 10:04:02;;;;;;;5.18;1.25;;;11.30;99.90;;;;;;5050420;28;20037;-78
2021/01/13 10:06:31;;;;;;;4.80;1.25;;;11.30;99.90;;;;;;5049266;28;20021;-82
2021/01/13 10:09:00;;;;;;;6.80;1.20;;;11.30;99.90;;;;;;5049188;28;20083;-80
2021/01/13 10:11:27;;;;;;;2.15;1.10;;;11.40;99.90;;;;;;5050596;28;20499;-80
2021/01/13 10:14:05;;;;;;;1.92;0.93;;;11.40;99.90;;;;;;5049360;28;20025;-80
2021/01/13 10:16:32;;;;;;;2.08;0.90;;;11.40;99.90;;;;;;5048463;28;20025;-82
2021/01/13 10:19:00;;;;;;;3.55;1.00;;;11.40;99.90;;;;;;5049399;28;20025;-80
2021/01/13 10:21:48;;;;;;;3.72;1.17;;;11.40;99.90;;;;;;5048869;28;20504;-79
2021/01/13 10:24:16;;;;;;;3.00;1.20;;;11.50;99.90;;;;;;5049183;28;20025;-80
2021/01/13 10:26:49;;;;;;;3.00;1.40;;;11.50;99.90;;;;;;5049071;28;20017;-78
2021/01/13 10:29:22;;;;;;;3.40;1.20;;;11.50;99.90;;;;;;5047419;28;20033;-79
2021/01/13 10:31:49;;;;;;;3.40;1.20;;;11.60;99.90;;;;;;5032162;28;20499;-80
2021/01/13 10:34:15;;;;;;;2.72;0.90;;;11.60;99.90;;;;;;5048807;28;20490;-79
2021/01/13 10:36:46;;;;;;;3.75;1.27;;;11.60;99.90;;;;;;5033149;28;20421;-81
2021/01/13 10:39:22;;;;;;;3.10;1.60;;;11.60;99.90;;;;;;5031779;28;20029;-79
2021/01/13 10:41:51;;;;;;;3.47;1.42;;;11.70;99.90;;;;;;5048697;28;20045;-81
2021/01/13 10:44:28;;;;;;;2.60;1.00;;;11.70;99.90;;;;;;5048389;28;20036;-80
2021/01/13 10:47:11;;;;;;;3.13;1.17;;;11.70;99.90;;;;;;5049518;28;20621;-80
2021/01/13 10:49:39;;;;;;;3.58;1.65;;;11.70;99.90;;;;;;5049641;28;20029;-79
2021/01/13 10:52:12;;;;;;;4.43;1.60;;;11.80;99.90;;;;;;5048721;28;20452;-83
2021/01/13 10:54:42;;;;;;;5.07;2.60;;;11.90;99.90;;;;;;5049548;28;20032;-80
2021/01/13 10:57:13;;;;;;;7.82;2.60;;;11.90;99.90;;;;;;5051510;28;20021;-82
2021/01/13 10:59:40;;;;;;;7.68;3.97;;;12.00;99.90;;;;;;5032559;28;20035;-82
2021/01/13 11:02:11;;;;;;;7.68;3.53;;;12.00;99.90;;;;;;5050417;28;20048;-80
2021/01/13 11:04:41;;;;;;;12.27;5.28;;;12.00;99.90;;;;;;5048822;28;20154;-80
2021/01/13 11:07:13;;;;;;;9.48;4.50;;;12.10;99.90;;;;;;5050003;28;20036;-79
2021/01/13 11:09:41;;;;;;;11.68;5.10;;;12.10;99.90;;;;;;5050118;28;20036;-84
2021/01/13 11:12:08;;;;;;;9.57;5.07;;;12.20;99.90;;;;;;5049091;28;20076;-78
2021/01/13 11:14:43;;;;;;;10.98;5.70;;;12.30;99.90;;;;;;5050622;28;20017;-80
2021/01/13 11:17:14;;;;;;;9.60;4.95;;;12.40;99.90;;;;;;5049425;28;20410;-80
2021/01/13 11:19:44;;;;;;;9.75;5.53;;;12.60;99.90;;;;;;5049793;28;20086;-82
2021/01/13 11:22:10;;;;;;;15.95;7.00;;;12.80;99.90;;;;;;5048552;28;20048;-81
2021/01/13 11:24:41;;;;;;;13.38;8.90;;;12.90;99.90;;;;;;5049481;28;20036;-81
2021/01/13 11:27:19;;;;;;;16.85;9.05;;;13.10;99.90;;;;;;5050340;28;20040;-84
2021/01/13 11:29:54;;;;;;;13.25;8.15;;;13.30;99.90;;;;;;5032365;28;20451;-82
2021/01/13 11:32:22;;;;;;;10.85;6.00;;;13.50;99.90;;;;;;5048046;28;20017;-82
2021/01/13 11:34:51;;;;;;;7.88;5.18;;;13.50;99.90;;;;;;5047293;28;20067;-77
2021/01/13 11:37:46;;;;;;;10.90;6.60;;;13.60;99.90;;;;;;5049258;28;20036;-81
2021/01/13 11:40:34;;;;;;;14.82;10.52;;;13.50;99.90;;;;;;5050016;28;20048;-82
2021/01/13 11:43:24;;;;;;;13.73;7.25;;;13.50;99.90;;;;;;5049573;28;20033;-80
2021/01/13 11:46:05;;;;;;;12.77;7.07;;;13.40;99.90;;;;;;5049329;28;20139;-80
2021/01/13 11:48:47;;;;;;;7.80;4.13;;;13.30;99.90;;;;;;5048982;28;20039;-79
2021/01/13 11:51:17;;;;;;;9.13;4.13;;;13.20;99.90;;;;;;5047663;28;20082;-80
2021/01/13 11:53:45;;;;;;;7.57;3.90;;;13.10;99.90;;;;;;5047451;28;20507;-79
2021/01/13 11:56:11;;;;;;;6.97;4.55;;;13.00;99.90;;;;;;5046823;28;20040;-81
2021/01/13 11:58:45;;;;;;;18.38;6.38;;;12.90;99.90;;;;;;5048849;28;20390;-80
2021/01/13 12:01:12;;;;;;;3.83;2.50;;;12.80;99.90;;;;;;5046461;28;20064;-80
2021/01/13 12:03:38;;;;;;;6.03;2.85;;;12.80;99.90;;;;;;5047389;28;20410;-81
2021/01/13 12:06:07;;;;;;;6.20;2.35;;;12.70;99.90;;;;;;5046404;28;20033;-80
2021/01/13 12:08:33;;;;;;;3.70;2.70;;;12.70;99.90;;;;;;5029417;28;20033;-83
2021/01/13 12:10:59;;;;;;;3.60;2.80;;;12.70;99.90;;;;;;5046136;28;20056;-82
2021/01/13 12:13:27;;;;;;;4.00;2.40;;;12.70;99.90;;;;;;5046500;28;20079;-80
2021/01/13 12:16:01;;;;;;;3.47;2.60;;;12.60;99.90;;;;;;5046383;28;20057;-80
2021/01/13 12:18:28;;;;;;;4.10;2.97;;;12.60;99.90;;;;;;5048620;28;20029;-80
2021/01/13 12:20:56;;;;;;;6.43;3.50;;;12.60;99.90;;;;;;5047387;28;20035;-81
2021/01/13 12:23:31;;;;;;;4.22;2.60;;;12.70;99.90;;;;;;5047532;28;20029;-82
2021/01/13 12:26:30;;;;;;;4.15;2.45;;;12.70;99.90;;;;;;5047729;28;20027;-80
2021/01/13 12:29:21;;;;;;;5.35;2.03;;;12.60;99.90;;;;;;5047607;28;20447;-80
2021/01/13 12:31:50;;;;;;;9.05;2.45;;;12.60;99.90;;;;;;5047237;28;20048;-81
2021/01/13 12:34:21;;;;;;;4.30;2.70;;;12.60;99.90;;;;;;5046407;28;20025;-84
2021/01/13 12:36:49;;;;;;;4.30;2.15;;;12.60;99.90;;;;;;5046178;28;20021;-80
2021/01/13 12:39:25;;;;;;;3.85;2.30;;;12.60;99.90;;;;;;5045962;28;20028;-81
2021/01/13 12:41:53;;;;;;;3.30;1.90;;;12.50;99.90;;;;;;5045986;28;20558;-82
2021/01/13 12:44:22;;;;;;;4.03;2.20;;;12.50;99.90;;;;;;5013334;28;20029;-80
2021/01/13 12:46:53;;;;;;;3.42;2.10;;;12.50;99.90;;;;;;5046039;28;20047;-80
2021/01/13 12:49:20;;;;;;;4.13;2.33;;;12.50;99.90;;;;;;5045977;28;20028;-79
2021/01/13 12:51:56;;;;;;;2.42;1.70;;;12.50;99.90;;;;;;5048636;28;20017;-79
2021/01/13 12:54:22;;;;;;;3.90;2.67;;;12.50;99.90;;;;;;5049777;28;20436;-79
2021/01/13 12:56:48;;;;;;;4.38;3.13;;;12.50;99.90;;;;;;5049741;28;20032;-81
2021/01/13 12:59:15;;;;;;;2.55;1.70;;;12.60;99.90;;;;;;5049659;28;20486;-82
2021/01/13 13:01:43;;;;;;;3.67;2.08;;;12.60;99.90;;;;;;5049641;28;20122;-81
2021/01/13 13:04:09;;;;;;;3.28;2.00;;;12.50;99.90;;;;;;5050501;28;20032;-80
2021/01/13 13:06:37;;;;;;;4.15;2.15;;;12.50;99.90;;;;;;5050167;28;20115;-80
2021/01/13 13:09:08;;;;;;;3.45;2.47;;;12.40;99.90;;;;;;5050283;28;20120;-80
2021/01/13 13:11:35;;;;;;;4.20;2.20;;;12.40;99.90;;;;;;5052616;28;20045;-80
2021/01/13 13:14:02;;;;;;;3.33;1.90;;;12.40;99.90;;;;;;5051380;28;20033;-79